ROMMA est une association bénévole à but non lucratif. Votre soutien est indispensable : ADHERER à ROMMA ou FAIRE un DON

Briord - (01, Ain)

Bugey (281 m)   Longitude: 05° 29' 13" E   Latitude: 45° 46' 37" N Station partenaire n°15
 

Détail journalier du     <<     >>

Température Precipitation Humidité Pression Vent Dir Rafale Dir. rafale Ensol.
Heure (°C) (mm) (%) (hPa) (km/h) (km/h) (min)
01:00 24.006510143---19E0
02:00 21.507010141ESE15ENE0
03:00 20.3074101302ESE0
04:00 19.9074101305SE0
05:00 18.7078101206SE0
06:00 17.8082101200---0
07:00 18.1085101200---0
08:00 19.8082101200---0
09:00 24.606910132ONO18ONO50
10:00 27.805710121---6SE60
11:00 28.605210122SE11SE55
12:00 26.706110142SE15SE0
13:00 27.1060101311NO32ONO35
14:00 27.705710134NO23NNO0
15:00 28.6056101303OSO0
16:00
17:00 29.605110125SE19SSE20
18:00 31.504010116SE21S60
19:00 31.703810106S21SSE60
20:00 31.604210101SSE11SSO60
21:00 30.204710102SE11SE60
22:00 26.1061101002SSE5
23:00 24.207510111ENE8NNE0
minuit 22.20.28010111NE16NE0

Graphique du 06-07-2019

 

Serveur OMMA